Time;durP1;ratioP1;P1;durP2;ratioP2;P2;SDS_P1;SDS_P2;PMS_P1;PMS_P2;Temp;Humidity;BMP_temperature;BMP_pressure;BME280_temperature;BME280_humidity;BME280_pressure;Samples;Min_cycle;Max_cycle;Signal;HPM_P1;HPM_P2
2021/04/17 00:00:31;;;;;;;9.77;5.10;;;6.60;99.90;;;;;;5108616;28;20464;-64
2021/04/17 00:02:57;;;;;;;10.83;5.20;;;6.60;99.90;;;;;;5097263;28;20444;-65
2021/04/17 00:05:23;;;;;;;9.23;4.60;;;6.70;99.90;;;;;;5114191;28;20445;-64
2021/04/17 00:07:50;;;;;;;12.37;4.87;;;6.70;99.90;;;;;;5115275;28;20500;-63
2021/04/17 00:10:17;;;;;;;9.07;4.30;;;6.70;99.90;;;;;;5107970;28;20563;-64
2021/04/17 00:12:44;;;;;;;9.73;4.20;;;6.70;99.90;;;;;;5115089;28;20456;-64
2021/04/17 00:15:11;;;;;;;11.03;4.20;;;6.70;99.90;;;;;;5114149;28;20457;-65
2021/04/17 00:17:37;;;;;;;8.50;4.50;;;6.60;99.90;;;;;;5114764;28;20445;-65
2021/04/17 00:20:05;;;;;;;11.07;4.77;;;6.70;99.90;;;;;;5108554;28;21007;-64
2021/04/17 00:22:31;;;;;;;9.97;3.93;;;6.70;99.90;;;;;;5114874;28;20540;-64
2021/04/17 00:24:58;;;;;;;9.80;4.30;;;6.70;99.90;;;;;;5113966;28;20930;-65
2021/04/17 00:27:24;;;;;;;9.37;4.27;;;6.70;99.90;;;;;;5114740;28;20449;-64
2021/04/17 00:29:51;;;;;;;10.40;5.00;;;6.70;99.90;;;;;;5096323;28;20674;-64
2021/04/17 00:32:17;;;;;;;9.83;4.90;;;6.60;99.90;;;;;;5114057;27;21003;-64
2021/04/17 00:34:44;;;;;;;11.90;4.93;;;6.50;99.90;;;;;;5097434;28;20542;-63
2021/04/17 00:37:10;;;;;;;8.60;4.20;;;6.50;99.90;;;;;;5093869;28;20450;-64
2021/04/17 00:39:37;;;;;;;8.90;3.80;;;6.40;99.90;;;;;;5109860;28;20548;-63
2021/04/17 00:42:04;;;;;;;9.07;3.80;;;6.50;99.90;;;;;;5099385;28;20441;-63
2021/04/17 00:44:31;;;;;;;12.23;4.40;;;6.40;99.90;;;;;;5114529;28;20453;-65
2021/04/17 00:46:58;;;;;;;8.37;3.70;;;6.40;99.90;;;;;;5110088;28;20566;-65
2021/04/17 00:49:24;;;;;;;10.17;4.13;;;6.40;99.90;;;;;;5094103;28;20492;-65
2021/04/17 00:51:51;;;;;;;9.33;4.03;;;6.40;99.90;;;;;;5109696;28;20561;-65
2021/04/17 00:54:17;;;;;;;10.80;4.43;;;6.40;99.90;;;;;;5114496;28;20449;-65
2021/04/17 00:56:44;;;;;;;9.80;3.67;;;6.30;99.90;;;;;;5095878;28;20480;-64
2021/04/17 00:59:10;;;;;;;10.00;4.03;;;6.20;99.90;;;;;;5093572;28;20762;-64
2021/04/17 01:01:38;;;;;;;8.00;3.90;;;6.20;99.90;;;;;;5095201;28;20431;-65
2021/04/17 01:04:10;;;;;;;12.50;4.53;;;6.10;99.90;;;;;;5094048;28;20828;-64
2021/04/17 01:06:40;;;;;;;9.70;3.30;;;6.10;99.90;;;;;;5097933;28;20453;-64
2021/04/17 01:09:11;;;;;;;9.33;4.13;;;6.10;99.90;;;;;;5114531;28;20488;-63
2021/04/17 01:11:44;;;;;;;8.30;3.70;;;6.10;99.90;;;;;;5098487;28;20457;-64
2021/04/17 01:14:12;;;;;;;8.57;3.20;;;6.00;99.90;;;;;;5093983;28;20541;-64
2021/04/17 01:16:39;;;;;;;9.27;4.17;;;6.10;99.90;;;;;;5097190;28;20455;-63
2021/04/17 01:19:11;;;;;;;11.60;4.23;;;6.10;99.90;;;;;;5114032;28;20452;-64
2021/04/17 01:21:39;;;;;;;8.40;3.27;;;6.10;99.90;;;;;;5112750;28;20557;-65
2021/04/17 01:24:12;;;;;;;10.73;4.00;;;6.00;99.90;;;;;;5110365;28;20540;-65
2021/04/17 01:26:39;;;;;;;7.47;2.70;;;5.90;99.90;;;;;;5104393;28;20814;-64
2021/04/17 01:29:06;;;;;;;10.83;3.93;;;5.90;99.90;;;;;;5113425;28;20591;-65
2021/04/17 01:31:36;;;;;;;8.67;3.83;;;5.80;99.90;;;;;;5095448;28;20445;-65
2021/04/17 01:34:04;;;;;;;8.07;3.97;;;5.90;99.90;;;;;;5092944;28;20445;-64
2021/04/17 01:36:32;;;;;;;8.63;3.40;;;5.80;99.90;;;;;;5096200;28;20449;-63
2021/04/17 01:39:02;;;;;;;9.30;3.50;;;5.80;99.90;;;;;;5113514;28;20454;-64
2021/04/17 01:41:31;;;;;;;10.77;3.83;;;5.70;99.90;;;;;;5102526;28;20532;-63
2021/04/17 01:44:02;;;;;;;9.30;3.87;;;5.80;99.90;;;;;;5111771;28;20484;-63
2021/04/17 01:46:32;;;;;;;9.37;3.27;;;5.60;99.90;;;;;;5111030;28;20456;-63
2021/04/17 01:49:01;;;;;;;10.20;3.20;;;5.60;99.90;;;;;;5104514;28;20452;-65
2021/04/17 01:51:29;;;;;;;9.47;3.70;;;5.50;99.90;;;;;;5095022;28;20441;-64
2021/04/17 01:53:57;;;;;;;9.70;3.30;;;5.50;99.90;;;;;;5107197;28;20881;-64
2021/04/17 01:56:25;;;;;;;8.13;3.70;;;5.40;99.90;;;;;;5111573;28;20444;-63
2021/04/17 01:58:53;;;;;;;8.53;3.50;;;5.40;99.90;;;;;;5092717;28;20961;-64
2021/04/17 02:01:21;;;;;;;8.67;3.00;;;5.40;99.90;;;;;;5110488;28;20521;-64
2021/04/17 02:03:48;;;;;;;10.00;4.43;;;5.40;99.90;;;;;;5112995;28;20451;-63
2021/04/17 02:06:14;;;;;;;10.43;3.83;;;5.40;99.90;;;;;;5099110;28;20749;-65
2021/04/17 02:08:41;;;;;;;9.23;3.80;;;5.30;99.90;;;;;;5102378;28;20452;-64
2021/04/17 02:11:08;;;;;;;7.50;3.00;;;5.30;99.90;;;;;;5110161;28;20477;-64
2021/04/17 02:13:35;;;;;;;8.30;4.17;;;5.20;99.90;;;;;;5100320;27;20459;-64
2021/04/17 02:16:07;;;;;;;8.20;4.27;;;5.20;99.90;;;;;;5111346;28;20451;-64
2021/04/17 02:18:47;;;;;;;10.00;4.07;;;5.20;99.90;;;;;;5103538;28;21001;-64
2021/04/17 02:21:19;;;;;;;9.27;3.97;;;5.10;99.90;;;;;;5092758;28;20510;-64
2021/04/17 02:23:47;;;;;;;9.67;3.80;;;5.10;99.90;;;;;;5091983;28;20453;-66
2021/04/17 02:26:14;;;;;;;8.40;3.00;;;5.00;99.90;;;;;;5104944;28;20535;-64
2021/04/17 02:28:41;;;;;;;10.93;3.70;;;5.00;99.90;;;;;;5103695;28;20862;-65
2021/04/17 02:31:07;;;;;;;11.50;4.20;;;4.90;99.90;;;;;;5111622;28;20523;-66
2021/04/17 02:33:34;;;;;;;10.80;3.57;;;4.90;99.90;;;;;;5110549;28;20595;-66
2021/04/17 02:36:01;;;;;;;11.00;3.90;;;4.90;99.90;;;;;;5093173;28;20826;-65
2021/04/17 02:38:27;;;;;;;9.33;3.20;;;4.90;99.90;;;;;;5101250;28;20514;-65
2021/04/17 02:40:53;;;;;;;11.00;4.10;;;4.90;99.90;;;;;;5103450;28;20491;-64
2021/04/17 02:43:20;;;;;;;12.50;3.90;;;4.80;99.90;;;;;;5102822;28;20457;-65
2021/04/17 02:45:46;;;;;;;13.20;4.20;;;4.70;99.90;;;;;;5091715;28;20511;-64
2021/04/17 02:48:13;;;;;;;12.53;3.23;;;4.70;99.90;;;;;;5097251;28;20499;-65
2021/04/17 02:50:40;;;;;;;14.23;4.33;;;4.70;99.90;;;;;;5112533;28;20566;-64
2021/04/17 02:53:06;;;;;;;12.90;3.73;;;4.60;99.90;;;;;;5111652;28;20530;-64
2021/04/17 02:55:33;;;;;;;14.23;3.70;;;4.70;99.90;;;;;;5106554;28;20462;-65
2021/04/17 02:57:59;;;;;;;14.23;3.60;;;4.60;99.90;;;;;;5109119;28;20460;-63
2021/04/17 03:00:26;;;;;;;18.67;4.20;;;4.50;99.90;;;;;;5094608;28;20493;-64
2021/04/17 03:02:53;;;;;;;17.43;3.97;;;4.50;99.90;;;;;;5112383;28;20847;-65
2021/04/17 03:05:21;;;;;;;16.97;4.40;;;4.50;99.90;;;;;;5110781;28;20446;-64
2021/04/17 03:07:48;;;;;;;21.40;4.50;;;4.50;99.90;;;;;;5110591;28;20536;-64
2021/04/17 03:10:15;;;;;;;22.10;3.93;;;4.40;99.90;;;;;;5093139;28;20712;-65
2021/04/17 03:12:42;;;;;;;23.93;4.10;;;4.40;99.90;;;;;;5095545;28;20460;-64
2021/04/17 03:15:09;;;;;;;23.30;4.00;;;4.40;99.90;;;;;;5107591;28;20516;-65
2021/04/17 03:17:36;;;;;;;27.97;4.40;;;4.30;99.90;;;;;;5095299;28;20462;-64
2021/04/17 03:20:06;;;;;;;28.23;4.67;;;4.30;99.90;;;;;;5114697;28;20436;-66
2021/04/17 03:22:32;;;;;;;30.73;5.63;;;4.20;99.90;;;;;;5113279;28;20942;-64
2021/04/17 03:25:00;;;;;;;30.67;5.13;;;4.20;99.90;;;;;;5101468;28;20449;-64
2021/04/17 03:27:26;;;;;;;30.73;5.30;;;4.20;99.90;;;;;;5115029;28;20968;-64
2021/04/17 03:29:53;;;;;;;31.80;6.40;;;4.10;99.90;;;;;;5112855;28;20485;-64
2021/04/17 03:32:19;;;;;;;36.23;7.70;;;4.10;99.90;;;;;;5102622;28;20451;-64
2021/04/17 03:34:46;;;;;;;39.43;8.53;;;4.10;99.90;;;;;;5098154;28;20461;-64
2021/04/17 03:37:12;;;;;;;36.37;7.70;;;4.10;99.90;;;;;;5114587;28;20442;-65
2021/04/17 03:39:38;;;;;;;41.43;8.03;;;4.00;99.90;;;;;;5114278;28;20900;-64
2021/04/17 03:42:06;;;;;;;40.07;7.53;;;4.00;99.90;;;;;;5114415;28;20956;-64
2021/04/17 03:44:33;;;;;;;42.10;9.87;;;4.00;99.90;;;;;;5110111;28;20800;-63
2021/04/17 03:46:59;;;;;;;39.63;8.43;;;3.90;99.90;;;;;;5095434;28;20438;-65
2021/04/17 03:49:26;;;;;;;41.43;9.03;;;3.80;99.90;;;;;;5095528;28;20840;-64
2021/04/17 03:51:52;;;;;;;42.30;8.57;;;3.80;99.90;;;;;;5095093;28;20492;-63
2021/04/17 03:54:18;;;;;;;43.40;8.77;;;3.80;99.90;;;;;;5095403;28;20425;-63
2021/04/17 03:56:45;;;;;;;45.33;10.00;;;3.80;99.90;;;;;;5095154;28;20457;-63
2021/04/17 03:59:12;;;;;;;46.07;10.57;;;3.80;99.90;;;;;;5107583;28;21007;-64
2021/04/17 04:01:38;;;;;;;47.30;11.53;;;3.80;99.90;;;;;;5095911;28;20850;-64
2021/04/17 04:04:05;;;;;;;46.63;10.53;;;3.80;99.90;;;;;;5095109;28;20448;-64
2021/04/17 04:06:32;;;;;;;53.63;17.00;;;3.70;99.90;;;;;;5094246;28;20574;-64
2021/04/17 04:08:58;;;;;;;50.70;12.70;;;3.70;99.90;;;;;;5093763;28;20951;-64
2021/04/17 04:11:24;;;;;;;51.60;13.20;;;3.70;99.90;;;;;;5095468;28;20446;-64
2021/04/17 04:13:51;;;;;;;50.43;15.23;;;3.60;99.90;;;;;;5095120;28;20458;-63
2021/04/17 04:16:18;;;;;;;53.90;17.43;;;3.60;99.90;;;;;;5094543;28;20500;-64
2021/04/17 04:18:44;;;;;;;56.77;25.83;;;3.40;99.90;;;;;;5094240;28;20417;-64
2021/04/17 04:21:10;;;;;;;43.77;9.83;;;3.40;99.90;;;;;;5093930;28;20476;-64
2021/04/17 04:23:37;;;;;;;60.30;27.67;;;3.30;99.90;;;;;;5093811;28;20985;-65
2021/04/17 04:26:03;;;;;;;58.03;23.60;;;3.30;99.90;;;;;;5094490;28;20438;-64
2021/04/17 04:28:30;;;;;;;58.27;20.23;;;3.30;99.90;;;;;;5093601;28;20519;-65
2021/04/17 04:30:57;;;;;;;51.72;20.58;;;3.30;99.90;;;;;;5092872;28;20452;-65
2021/04/17 04:33:24;;;;;;;57.30;23.43;;;3.30;99.90;;;;;;5092572;28;20266;-67
2021/04/17 04:35:50;;;;;;;63.50;28.50;;;3.30;99.90;;;;;;5092312;28;20516;-63
2021/04/17 04:38:17;;;;;;;63.40;27.93;;;3.20;99.90;;;;;;5092726;28;20442;-63
2021/04/17 04:40:43;;;;;;;70.73;29.63;;;3.20;99.90;;;;;;5102355;28;21041;-63
2021/04/17 04:43:10;;;;;;;62.40;31.53;;;3.30;99.90;;;;;;5101879;28;20409;-64
2021/04/17 04:45:36;;;;;;;71.10;30.83;;;3.30;99.90;;;;;;5101059;28;21150;-65
2021/04/17 04:48:03;;;;;;;66.53;27.20;;;3.40;99.90;;;;;;5100753;28;20455;-64
2021/04/17 04:50:31;;;;;;;70.80;32.23;;;3.40;99.90;;;;;;5100459;28;20536;-64
2021/04/17 04:52:57;;;;;;;68.53;30.93;;;3.40;99.90;;;;;;5099901;28;20447;-63
2021/04/17 04:55:24;;;;;;;72.60;32.80;;;3.50;99.90;;;;;;5100425;28;20463;-65
2021/04/17 04:57:50;;;;;;;71.80;39.47;;;3.50;99.90;;;;;;5100744;28;20530;-64
2021/04/17 05:00:17;;;;;;;69.83;34.60;;;3.50;99.90;;;;;;5101353;28;20499;-65
2021/04/17 05:02:44;;;;;;;71.63;45.97;;;3.60;99.90;;;;;;5100540;28;20485;-64
2021/04/17 05:08:40;;;;;;;73.90;47.97;;;3.80;99.90;;;;;;5130836;22;20484;-65
2021/04/17 05:11:06;;;;;;;72.83;37.73;;;3.90;99.90;;;;;;5130346;27;20478;-65
2021/04/17 05:13:33;;;;;;;77.53;53.93;;;4.00;99.90;;;;;;5132867;27;20485;-64
2021/04/17 05:15:59;;;;;;;74.20;43.83;;;4.00;99.90;;;;;;5133524;27;20452;-64
2021/04/17 05:18:25;;;;;;;78.67;57.20;;;4.10;99.90;;;;;;5131921;27;20445;-65
2021/04/17 05:20:53;;;;;;;82.17;57.10;;;4.30;99.90;;;;;;5133154;27;20817;-64
2021/04/17 05:23:19;;;;;;;80.67;59.23;;;4.30;99.90;;;;;;5133610;27;21016;-65
2021/04/17 05:25:47;;;;;;;83.20;64.43;;;4.40;99.90;;;;;;5132744;27;20861;-64
2021/04/17 05:28:13;;;;;;;85.27;64.33;;;4.50;99.90;;;;;;5131579;27;20445;-65
2021/04/17 05:30:39;;;;;;;85.87;60.67;;;4.50;99.90;;;;;;5132056;27;20572;-66
2021/04/17 05:33:06;;;;;;;84.80;63.00;;;4.50;99.90;;;;;;5133945;27;20877;-66
2021/04/17 05:35:32;;;;;;;82.90;67.23;;;4.50;99.90;;;;;;5133074;27;20538;-65
2021/04/17 05:37:59;;;;;;;81.20;63.77;;;4.60;99.90;;;;;;5125562;27;20456;-67
2021/04/17 05:40:25;;;;;;;93.63;83.80;;;4.60;99.90;;;;;;5134000;27;20447;-64
2021/04/17 05:42:53;;;;;;;82.07;69.87;;;4.60;99.90;;;;;;5134141;27;20444;-65
2021/04/17 05:45:19;;;;;;;88.80;78.97;;;4.60;99.90;;;;;;5134271;27;20962;-67
2021/04/17 05:47:46;;;;;;;106.77;96.17;;;4.70;99.90;;;;;;5133187;27;20927;-66
2021/04/17 05:50:13;;;;;;;104.93;94.63;;;4.70;99.90;;;;;;5132836;27;20576;-64
2021/04/17 05:52:39;;;;;;;94.73;83.83;;;4.80;99.90;;;;;;5133544;27;20458;-65
2021/04/17 05:55:07;;;;;;;119.63;108.23;;;4.90;99.90;;;;;;5128051;27;20540;-63
2021/04/17 05:57:33;;;;;;;96.03;85.47;;;4.90;99.90;;;;;;5128233;27;20462;-65
2021/04/17 06:00:00;;;;;;;152.37;139.87;;;5.00;99.90;;;;;;5120001;27;20934;-63
2021/04/17 06:02:27;;;;;;;144.90;132.60;;;5.10;99.90;;;;;;5121121;27;20523;-65
2021/04/17 06:04:53;;;;;;;152.07;139.87;;;5.20;99.90;;;;;;5132746;27;20483;-67
2021/04/17 06:07:19;;;;;;;128.83;117.43;;;5.30;99.90;;;;;;5133078;27;20447;-64
2021/04/17 06:09:46;;;;;;;177.43;164.40;;;5.30;99.90;;;;;;5132611;27;20547;-64
2021/04/17 06:12:13;;;;;;;201.97;187.77;;;5.40;99.90;;;;;;5132899;27;20450;-63
2021/04/17 06:14:40;;;;;;;184.27;170.90;;;5.40;99.90;;;;;;5133142;27;20821;-63
2021/04/17 06:17:07;;;;;;;207.50;193.43;;;5.40;99.90;;;;;;5132731;27;20483;-64
2021/04/17 06:19:33;;;;;;;138.90;127.00;;;5.50;99.90;;;;;;5132756;27;20550;-64
2021/04/17 06:22:00;;;;;;;190.37;176.00;;;5.50;99.90;;;;;;5132947;27;20839;-65
2021/04/17 06:24:26;;;;;;;165.90;153.23;;;5.60;99.90;;;;;;5125075;27;20496;-63
2021/04/17 06:26:52;;;;;;;228.57;213.83;;;5.70;99.90;;;;;;5127184;27;20531;-62
2021/04/17 06:29:19;;;;;;;228.10;213.03;;;5.80;99.90;;;;;;5126443;27;20533;-64
2021/04/17 06:31:45;;;;;;;165.30;152.13;;;5.80;99.90;;;;;;5121241;28;20464;-65
2021/04/17 06:34:13;;;;;;;199.47;184.97;;;5.90;99.90;;;;;;5124580;27;20549;-67
2021/04/17 06:36:39;;;;;;;159.30;145.90;;;5.90;99.90;;;;;;5122949;27;20475;-65
2021/04/17 06:39:07;;;;;;;221.00;205.20;;;6.00;99.90;;;;;;5122991;27;20967;-63
2021/04/17 06:41:35;;;;;;;158.90;146.47;;;6.00;99.90;;;;;;5128507;28;20990;-68
2021/04/17 06:44:05;;;;;;;144.53;132.00;;;6.10;99.90;;;;;;5112287;28;20822;-63
2021/04/17 06:46:32;;;;;;;174.57;161.37;;;6.20;99.90;;;;;;5118029;28;20458;-63
2021/04/17 06:49:00;;;;;;;189.67;175.30;;;6.10;99.90;;;;;;5132261;28;20929;-65
2021/04/17 06:51:29;;;;;;;244.33;229.07;;;6.30;99.90;;;;;;5127953;28;20871;-63
2021/04/17 06:53:57;;;;;;;263.20;247.53;;;6.40;99.90;;;;;;5132621;28;21018;-65
2021/04/17 06:56:24;;;;;;;248.70;233.43;;;6.50;99.90;;;;;;5129368;27;20964;-65
2021/04/17 06:58:51;;;;;;;263.70;247.50;;;6.70;99.90;;;;;;5131981;28;20493;-65
2021/04/17 07:01:17;;;;;;;276.97;260.47;;;6.90;99.90;;;;;;5131640;28;20558;-68
2021/04/17 07:03:43;;;;;;;315.17;296.40;;;7.10;99.90;;;;;;5132764;28;20535;-64
2021/04/17 07:06:10;;;;;;;363.77;343.40;;;7.20;99.90;;;;;;5131791;28;20448;-66
2021/04/17 07:08:39;;;;;;;485.10;457.73;;;7.30;99.90;;;;;;5126197;28;20452;-64
2021/04/17 07:11:06;;;;;;;433.13;409.43;;;7.40;99.90;;;;;;5125994;28;20476;-68
2021/04/17 07:13:34;;;;;;;359.70;340.10;;;7.60;99.90;;;;;;5128805;28;20461;-63
2021/04/17 07:16:09;;;;;;;364.47;343.80;;;7.90;99.90;;;;;;5125899;28;20448;-66
2021/04/17 07:18:37;;;;;;;411.37;389.40;;;8.10;99.90;;;;;;5112833;28;20536;-64
2021/04/17 07:21:23;;;;;;;474.90;450.30;;;8.20;99.90;;;;;;5125962;28;20551;-64
2021/04/17 07:23:50;;;;;;;360.67;341.33;;;8.20;99.90;;;;;;5123368;28;20524;-66
2021/04/17 07:26:18;;;;;;;49.17;29.43;;;8.40;99.90;;;;;;5121600;28;20946;-64
2021/04/17 07:28:58;;;;;;;10.73;4.10;;;9.40;99.90;;;;;;5125615;28;20491;-65
2021/04/17 07:31:26;;;;;;;10.97;4.83;;;9.90;99.90;;;;;;5131925;27;20991;-65
2021/04/17 07:33:52;;;;;;;8.27;3.40;;;10.00;99.90;;;;;;5128977;28;20537;-65
2021/04/17 07:36:21;;;;;;;11.37;4.70;;;10.30;99.90;;;;;;5119104;28;20453;-66
2021/04/17 07:38:48;;;;;;;10.00;4.20;;;10.80;99.90;;;;;;5120757;28;20445;-66
2021/04/17 07:41:19;;;;;;;8.30;4.00;;;11.10;99.90;;;;;;5128016;27;20825;-64
2021/04/17 07:43:54;;;;;;;11.27;4.23;;;11.80;99.90;;;;;;5115618;27;20459;-64
2021/04/17 07:46:24;;;;;;;10.70;4.37;;;12.60;99.90;;;;;;5123134;28;20440;-65
2021/04/17 07:48:52;;;;;;;10.17;3.80;;;13.30;99.90;;;;;;5129697;27;20872;-64
2021/04/17 07:51:19;;;;;;;9.77;4.50;;;14.20;99.90;;;;;;5123594;28;20567;-63
2021/04/17 07:53:46;;;;;;;8.57;3.60;;;14.60;99.90;;;;;;5112975;28;20448;-64
2021/04/17 07:56:33;;;;;;;8.70;3.73;;;15.40;99.90;;;;;;5111584;28;20445;-67
2021/04/17 07:59:01;;;;;;;8.80;3.73;;;16.80;99.90;;;;;;5115502;28;20946;-63
2021/04/17 08:01:29;;;;;;;9.33;4.27;;;17.60;99.90;;;;;;5115670;27;20954;-65
2021/04/17 08:03:57;;;;;;;9.07;4.60;;;18.60;99.60;;;;;;5123477;27;20894;-66
2021/04/17 08:06:25;;;;;;;9.07;4.10;;;18.90;95.50;;;;;;5115016;28;20477;-67
2021/04/17 08:08:53;;;;;;;7.87;3.47;;;18.70;95.20;;;;;;5124503;27;20448;-63
2021/04/17 08:11:22;;;;;;;7.67;3.43;;;18.90;92.10;;;;;;5123926;27;20533;-64
2021/04/17 08:13:51;;;;;;;7.70;3.70;;;19.10;90.30;;;;;;5124185;27;20448;-68
2021/04/17 08:16:18;;;;;;;9.40;4.60;;;19.30;89.00;;;;;;5134925;27;20471;-64
2021/04/17 08:18:47;;;;;;;14.40;4.67;;;18.20;89.00;;;;;;5134547;27;20445;-64
2021/04/17 08:21:16;;;;;;;7.27;3.20;;;18.70;89.10;;;;;;5133653;27;20569;-66
2021/04/17 08:23:45;;;;;;;8.97;3.30;;;19.90;90.80;;;;;;5134783;27;20449;-64
2021/04/17 08:26:12;;;;;;;9.00;3.50;;;20.90;87.80;;;;;;5135283;27;20444;-65
2021/04/17 08:28:40;;;;;;;9.17;3.80;;;21.30;85.00;;;;;;5133099;27;20476;-62
2021/04/17 08:31:27;;;;;;;13.93;6.23;;;21.70;81.30;;;;;;5114776;28;20487;-64
2021/04/17 08:34:12;;;;;;;10.03;4.27;;;21.90;79.20;;;;;;5129153;27;20543;-65
2021/04/17 08:36:41;;;;;;;9.57;3.60;;;22.50;74.80;;;;;;5134835;27;20511;-64
2021/04/17 08:39:28;;;;;;;8.20;3.40;;;21.70;73.80;;;;;;5134901;27;20957;-67
2021/04/17 08:41:55;;;;;;;9.03;3.00;;;21.90;71.70;;;;;;5135115;27;20497;-64
2021/04/17 08:44:31;;;;;;;9.93;3.20;;;22.60;69.30;;;;;;5134976;27;20452;-64
2021/04/17 08:46:59;;;;;;;8.90;3.03;;;22.50;67.30;;;;;;5134700;27;20487;-61
2021/04/17 08:49:27;;;;;;;10.83;2.93;;;23.20;73.20;;;;;;5135051;27;20949;-63
2021/04/17 08:52:19;;;;;;;7.70;2.60;;;23.30;63.40;;;;;;5133723;27;20540;-64
2021/04/17 08:54:48;;;;;;;9.43;3.47;;;22.90;63.50;;;;;;5114587;28;20444;-63
2021/04/17 08:57:15;;;;;;;8.73;3.27;;;23.40;63.30;;;;;;5134176;27;20471;-62
2021/04/17 08:59:43;;;;;;;7.30;2.50;;;23.70;61.90;;;;;;5133582;27;20441;-64
2021/04/17 09:02:12;;;;;;;7.93;2.67;;;22.60;60.50;;;;;;5134546;27;20945;-62
2021/04/17 09:04:57;;;;;;;7.87;3.13;;;23.70;61.20;;;;;;5125881;27;20441;-63
2021/04/17 09:07:23;;;;;;;8.00;3.20;;;23.00;57.90;;;;;;5128624;27;20525;-62
2021/04/17 09:09:50;;;;;;;9.43;3.40;;;23.50;59.30;;;;;;5134432;27;20885;-61
2021/04/17 09:12:18;;;;;;;7.50;2.63;;;23.80;57.80;;;;;;5134163;27;20828;-65
2021/04/17 09:14:56;;;;;;;7.20;3.30;;;21.30;57.60;;;;;;5127145;27;20456;-63
2021/04/17 09:17:41;;;;;;;8.23;3.60;;;21.60;59.00;;;;;;5128464;27;21190;-63
2021/04/17 09:20:10;;;;;;;9.13;2.87;;;19.30;58.80;;;;;;5132153;27;20505;-61
2021/04/17 09:22:54;;;;;;;8.70;3.23;;;18.30;58.90;;;;;;5134227;27;20954;-64
2021/04/17 09:25:42;;;;;;;8.40;2.90;;;17.90;62.70;;;;;;5133736;27;20468;-62
2021/04/17 09:28:09;;;;;;;6.60;2.70;;;18.50;63.20;;;;;;5134009;27;20432;-64
2021/04/17 09:30:35;;;;;;;7.07;2.77;;;18.80;62.80;;;;;;5123426;27;20499;-64
2021/04/17 09:33:03;;;;;;;8.27;2.50;;;18.70;61.30;;;;;;5113532;28;20541;-63
2021/04/17 09:35:32;;;;;;;7.80;3.10;;;18.60;60.80;;;;;;5130317;27;21024;-64
2021/04/17 09:38:02;;;;;;;6.20;2.30;;;18.30;59.80;;;;;;5133622;27;20440;-63
2021/04/17 09:40:34;;;;;;;6.00;2.60;;;19.20;61.20;;;;;;5133278;27;20975;-64
2021/04/17 09:43:01;;;;;;;7.50;2.67;;;18.90;61.00;;;;;;5132174;27;20478;-65
2021/04/17 09:45:33;;;;;;;7.20;2.70;;;19.30;60.50;;;;;;5129722;27;20463;-62
2021/04/17 09:48:02;;;;;;;8.60;3.40;;;18.50;61.00;;;;;;5124443;27;20520;-64
2021/04/17 09:50:31;;;;;;;8.30;3.30;;;18.00;62.20;;;;;;5133345;27;20480;-62
2021/04/17 09:53:09;;;;;;;8.67;2.97;;;18.80;61.70;;;;;;5133718;27;20444;-64
2021/04/17 09:55:56;;;;;;;8.93;2.60;;;19.40;62.00;;;;;;5132949;27;20956;-66
2021/04/17 09:58:25;;;;;;;7.03;2.47;;;19.70;61.70;;;;;;5121606;27;20532;-62
2021/04/17 10:00:52;;;;;;;8.00;3.67;;;21.80;60.70;;;;;;5126087;27;20451;-63
2021/04/17 10:03:29;;;;;;;8.03;3.13;;;23.10;59.70;;;;;;5118047;27;20927;-62
2021/04/17 10:05:59;;;;;;;8.67;2.97;;;24.20;58.50;;;;;;5129148;27;20503;-63
2021/04/17 10:08:31;;;;;;;8.07;3.23;;;25.00;56.80;;;;;;5126928;27;20489;-62
2021/04/17 10:10:58;;;;;;;7.37;3.00;;;24.40;55.90;;;;;;5126704;27;20849;-64
2021/04/17 10:13:42;;;;;;;7.70;3.07;;;22.20;55.80;;;;;;5122556;27;20444;-62
2021/04/17 10:16:09;;;;;;;7.40;2.50;;;19.80;58.00;;;;;;5126819;27;20451;-60
2021/04/17 10:18:37;;;;;;;8.90;3.40;;;20.30;58.70;;;;;;5124161;27;20488;-62
2021/04/17 10:21:06;;;;;;;6.67;3.20;;;19.50;59.70;;;;;;5129476;27;20445;-61
2021/04/17 10:23:33;;;;;;;9.67;3.27;;;18.50;58.80;;;;;;5121996;27;20476;-65
2021/04/17 10:26:07;;;;;;;10.90;5.43;;;18.20;62.10;;;;;;5132221;27;21012;-61
2021/04/17 10:28:34;;;;;;;11.20;3.17;;;18.20;61.30;;;;;;5132955;27;20527;-62
2021/04/17 10:31:07;;;;;;;10.57;3.50;;;18.10;61.10;;;;;;5132823;27;20529;-66
2021/04/17 10:33:34;;;;;;;10.40;3.70;;;18.80;62.00;;;;;;5132036;27;20448;-63
2021/04/17 10:36:02;;;;;;;8.83;3.87;;;19.00;59.50;;;;;;5131902;27;20460;-60
2021/04/17 10:38:35;;;;;;;7.57;3.47;;;18.50;60.00;;;;;;5133123;27;20460;-62
2021/04/17 10:41:03;;;;;;;7.37;3.10;;;17.90;60.40;;;;;;5132794;27;20450;-62
2021/04/17 10:43:30;;;;;;;10.50;3.70;;;16.50;61.80;;;;;;5132495;27;20436;-62
2021/04/17 10:45:59;;;;;;;8.60;3.20;;;16.10;63.60;;;;;;5129919;28;20527;-62
2021/04/17 10:48:27;;;;;;;8.73;3.20;;;16.20;62.30;;;;;;5121881;28;20498;-63
2021/04/17 10:50:59;;;;;;;8.87;3.43;;;16.50;64.10;;;;;;5132618;28;20582;-63
2021/04/17 10:53:28;;;;;;;8.30;3.17;;;17.40;62.70;;;;;;5132748;28;20471;-63
2021/04/17 10:55:57;;;;;;;9.83;3.30;;;18.20;63.60;;;;;;5132330;27;20532;-64
2021/04/17 10:58:27;;;;;;;11.60;3.07;;;18.80;62.50;;;;;;5131500;28;20448;-64
2021/04/17 11:00:56;;;;;;;6.33;2.60;;;18.60;64.30;;;;;;5131338;28;20791;-62
2021/04/17 11:03:27;;;;;;;8.77;2.83;;;19.50;61.00;;;;;;5131935;27;20471;-63
2021/04/17 11:05:55;;;;;;;9.00;4.20;;;18.80;59.30;;;;;;5132313;28;20444;-66
2021/04/17 11:08:22;;;;;;;7.73;2.40;;;18.30;59.60;;;;;;5119799;28;20544;-62
2021/04/17 11:10:49;;;;;;;7.60;2.93;;;18.80;58.80;;;;;;5122639;28;20475;-64
2021/04/17 11:13:47;;;;;;;7.03;2.73;;;19.40;59.70;;;;;;5118913;27;20458;-62
2021/04/17 11:16:14;;;;;;;5.60;1.67;;;19.90;55.40;;;;;;5120180;27;20479;-62
2021/04/17 11:18:43;;;;;;;6.33;2.30;;;18.10;50.70;;;;;;5130889;27;20447;-61
2021/04/17 11:21:16;;;;;;;7.00;2.00;;;17.90;53.60;;;;;;5123589;27;20479;-63
2021/04/17 11:23:47;;;;;;;5.63;1.43;;;18.30;52.80;;;;;;5119971;28;20452;-63
2021/04/17 11:26:18;;;;;;;6.03;1.90;;;18.30;52.40;;;;;;5117458;28;20445;-64
2021/04/17 11:28:47;;;;;;;8.10;2.57;;;17.60;49.20;;;;;;5120087;28;20444;-63
2021/04/17 11:31:17;;;;;;;7.43;1.80;;;18.80;51.80;;;;;;5117061;28;20606;-66
2021/04/17 11:33:47;;;;;;;7.03;2.50;;;19.60;50.40;;;;;;5118125;27;20998;-62
2021/04/17 11:36:14;;;;;;;8.10;2.10;;;18.20;52.90;;;;;;5125735;27;20453;-64
2021/04/17 11:38:40;;;;;;;6.37;2.23;;;17.20;53.60;;;;;;5115968;27;20615;-63
2021/04/17 11:41:08;;;;;;;9.30;2.40;;;16.90;53.50;;;;;;5109626;27;20459;-65
2021/04/17 11:43:34;;;;;;;6.80;2.10;;;17.20;55.10;;;;;;5123480;27;20433;-65
2021/04/17 11:46:02;;;;;;;7.20;2.30;;;18.60;57.50;;;;;;5130876;27;20808;-65
2021/04/17 11:48:29;;;;;;;5.87;1.87;;;19.20;56.00;;;;;;5135067;27;20444;-63
2021/04/17 11:50:55;;;;;;;7.10;2.60;;;19.60;54.20;;;;;;5132664;27;21018;-63
2021/04/17 11:53:22;;;;;;;7.13;2.20;;;19.60;53.40;;;;;;5134501;27;20440;-63
2021/04/17 11:55:53;;;;;;;8.23;2.03;;;19.10;54.60;;;;;;5135376;27;20448;-63
2021/04/17 11:58:21;;;;;;;9.37;2.27;;;19.70;56.50;;;;;;5135753;27;20445;-66
2021/04/17 12:00:48;;;;;;;9.87;2.33;;;20.10;52.90;;;;;;5135327;27;20452;-63
2021/04/17 12:03:21;;;;;;;6.13;2.00;;;20.40;54.30;;;;;;5124576;27;20856;-66
2021/04/17 12:05:48;;;;;;;6.30;2.30;;;22.90;56.10;;;;;;5135430;27;20448;-66
2021/04/17 12:08:15;;;;;;;7.33;2.10;;;24.30;53.30;;;;;;5123392;27;20784;-65
2021/04/17 12:10:41;;;;;;;6.83;2.33;;;22.90;47.20;;;;;;5121708;27;20492;-64
2021/04/17 12:13:08;;;;;;;9.53;2.83;;;21.70;48.90;;;;;;5129112;27;20471;-64
2021/04/17 12:15:36;;;;;;;6.90;2.33;;;20.60;50.10;;;;;;5132324;27;20592;-64
2021/04/17 12:18:03;;;;;;;6.73;2.60;;;20.10;53.20;;;;;;5122336;27;20515;-64
2021/04/17 12:20:30;;;;;;;7.30;2.93;;;18.80;53.10;;;;;;5119861;27;20707;-63
2021/04/17 12:22:57;;;;;;;7.43;2.67;;;17.50;52.70;;;;;;5132973;27;20870;-63
2021/04/17 12:25:24;;;;;;;10.20;2.90;;;16.30;53.00;;;;;;5134226;27;20487;-66
2021/04/17 12:27:51;;;;;;;7.87;2.33;;;15.90;55.30;;;;;;5134615;27;20529;-66
2021/04/17 12:30:20;;;;;;;13.90;3.00;;;15.60;55.50;;;;;;5133748;27;20479;-65
2021/04/17 12:32:46;;;;;;;6.03;2.00;;;17.80;57.70;;;;;;5125697;27;20436;-65
2021/04/17 12:35:15;;;;;;;7.17;2.23;;;20.10;55.70;;;;;;5128959;27;20559;-63
2021/04/17 12:37:42;;;;;;;8.30;2.40;;;21.00;53.20;;;;;;5125481;27;20452;-67
2021/04/17 12:40:10;;;;;;;6.40;2.43;;;21.00;51.70;;;;;;5133929;27;20440;-63
2021/04/17 12:42:37;;;;;;;6.63;2.50;;;20.90;52.00;;;;;;5130922;27;20457;-62
2021/04/17 12:45:06;;;;;;;8.47;2.10;;;21.10;52.70;;;;;;5133946;27;20463;-64
2021/04/17 12:47:33;;;;;;;7.40;2.30;;;20.60;50.70;;;;;;5134258;27;20487;-64
2021/04/17 12:49:59;;;;;;;10.77;3.07;;;19.70;53.00;;;;;;5134499;27;20448;-63
2021/04/17 12:52:26;;;;;;;7.43;2.70;;;17.60;54.00;;;;;;5134031;27;20966;-62